createdAt,value
2018-09-09T00:00:58.379Z,14.20
2018-09-09T00:05:49.275Z,14.20
2018-09-09T00:10:40.207Z,14.10
2018-09-09T00:15:31.120Z,14.10
2018-09-09T00:20:22.071Z,14.10
2018-09-09T00:25:12.993Z,14.00
2018-09-09T00:30:03.907Z,14.00
2018-09-09T00:34:54.855Z,14.00
2018-09-09T00:39:45.773Z,13.90
2018-09-09T00:44:37.458Z,13.90
2018-09-09T00:49:29.109Z,13.90
2018-09-09T00:54:20.031Z,13.90
2018-09-09T00:59:10.950Z,13.90
2018-09-09T01:04:01.859Z,13.90
2018-09-09T01:08:52.779Z,13.90
2018-09-09T01:13:45.182Z,13.80
2018-09-09T01:18:36.089Z,13.80
2018-09-09T01:23:27.031Z,13.80
2018-09-09T01:28:18.686Z,13.80
2018-09-09T01:33:09.635Z,13.80
2018-09-09T01:38:00.644Z,13.80
2018-09-09T01:42:51.578Z,13.80
2018-09-09T01:47:42.500Z,13.80
2018-09-09T01:52:34.202Z,13.80
2018-09-09T01:57:25.104Z,13.80
2018-09-09T02:02:16.046Z,13.90
2018-09-09T02:07:06.966Z,13.80
2018-09-09T02:11:58.021Z,13.80
2018-09-09T02:16:48.981Z,13.80
2018-09-09T02:21:39.897Z,13.80
2018-09-09T02:26:31.615Z,13.80
2018-09-09T02:31:22.559Z,13.80
2018-09-09T02:36:14.320Z,13.80
2018-09-09T02:41:05.960Z,13.80
2018-09-09T02:45:56.887Z,13.80
2018-09-09T02:50:48.547Z,13.70
2018-09-09T02:55:39.476Z,13.70
2018-09-09T03:00:30.411Z,13.70
2018-09-09T03:05:22.076Z,13.70
2018-09-09T03:10:12.998Z,13.70
2018-09-09T03:15:03.891Z,13.70
2018-09-09T03:19:54.854Z,13.70
2018-09-09T03:24:45.772Z,13.70
2018-09-09T03:29:37.437Z,13.60
2018-09-09T03:34:28.358Z,13.60
2018-09-09T03:39:19.278Z,13.60
2018-09-09T03:44:10.927Z,13.60
2018-09-09T03:49:01.868Z,13.60
2018-09-09T03:53:52.786Z,13.60
2018-09-09T03:58:43.692Z,13.60
2018-09-09T04:03:34.642Z,13.60
2018-09-09T04:08:26.294Z,13.50
2018-09-09T04:13:17.197Z,13.50
2018-09-09T04:18:08.891Z,13.50
2018-09-09T04:22:59.807Z,13.50
2018-09-09T04:27:51.503Z,13.50
2018-09-09T04:32:42.414Z,13.50
2018-09-09T04:37:33.333Z,13.50
2018-09-09T04:42:24.261Z,13.40
2018-09-09T04:47:15.221Z,13.40
2018-09-09T04:52:06.145Z,13.40
2018-09-09T04:56:57.808Z,13.40
2018-09-09T05:01:48.734Z,13.40
2018-09-09T05:06:39.668Z,13.40
2018-09-09T05:11:31.318Z,13.40
2018-09-09T05:16:22.235Z,13.40
2018-09-09T05:21:13.888Z,13.40
2018-09-09T05:26:04.802Z,13.40
2018-09-09T05:30:55.723Z,13.40
2018-09-09T05:35:46.682Z,13.40
2018-09-09T05:40:37.711Z,13.40
2018-09-09T05:45:28.631Z,13.50
2018-09-09T05:50:19.550Z,13.50
2018-09-09T05:55:10.489Z,13.60
2018-09-09T06:00:02.167Z,13.70
2018-09-09T06:04:53.813Z,13.70
2018-09-09T06:09:44.765Z,13.70
2018-09-09T06:14:35.717Z,13.80
2018-09-09T06:19:26.623Z,13.90
2018-09-09T06:24:17.557Z,14.00
2018-09-09T06:29:08.515Z,14.10
2018-09-09T06:33:59.470Z,14.20
2018-09-09T06:38:50.391Z,14.30
2018-09-09T06:43:41.294Z,14.40
2018-09-09T06:48:32.267Z,14.50
2018-09-09T06:53:23.958Z,14.80
2018-09-09T06:58:14.906Z,14.70
2018-09-09T07:03:06.590Z,15.00
2018-09-09T07:07:58.242Z,15.10
2018-09-09T07:12:49.195Z,15.10
2018-09-09T07:17:40.220Z,15.30
2018-09-09T07:22:31.214Z,15.40
2018-09-09T07:27:22.155Z,15.50
2018-09-09T07:32:13.073Z,15.70
2018-09-09T07:37:04.065Z,15.90
2018-09-09T07:41:54.981Z,16.00
2018-09-09T07:46:46.699Z,16.40
2018-09-09T07:51:37.616Z,16.40
2018-09-09T07:56:28.616Z,16.60
2018-09-09T08:01:20.264Z,16.90
2018-09-09T08:06:11.189Z,16.90
2018-09-09T08:11:02.208Z,17.00
2018-09-09T08:15:53.122Z,17.20
2018-09-09T08:20:44.040Z,17.30
2018-09-09T08:25:34.965Z,17.50
2018-09-09T08:30:25.987Z,17.60
2018-09-09T08:35:16.936Z,17.70
2018-09-09T08:40:07.839Z,17.80
2018-09-09T08:44:58.736Z,18.00
2018-09-09T08:49:50.376Z,18.20
2018-09-09T08:54:41.292Z,18.20
2018-09-09T08:59:33.002Z,18.50
2018-09-09T09:04:23.931Z,18.40
2018-09-09T09:09:14.845Z,18.60
2018-09-09T09:14:05.759Z,18.70
2018-09-09T09:18:56.709Z,18.80
2018-09-09T09:23:49.189Z,19.00
2018-09-09T09:28:40.130Z,19.00
2018-09-09T09:33:31.896Z,19.30
2018-09-09T09:38:22.832Z,19.30
2018-09-09T09:43:13.737Z,19.40
2018-09-09T09:48:05.395Z,19.70
2018-09-09T09:52:56.327Z,19.60
2018-09-09T09:57:47.991Z,19.90
2018-09-09T10:02:38.915Z,20.00
2018-09-09T10:07:29.893Z,20.10
2018-09-09T10:12:20.830Z,20.10
2018-09-09T10:17:11.754Z,20.40
2018-09-09T10:22:03.411Z,20.70
2018-09-09T10:26:54.347Z,20.70
2018-09-09T10:31:45.305Z,20.80
2018-09-09T10:36:36.374Z,21.00
2018-09-09T10:41:27.295Z,21.10
2018-09-09T10:46:19.198Z,21.50
2018-09-09T10:51:10.098Z,21.50
2018-09-09T10:56:01.015Z,21.70
2018-09-09T11:00:51.922Z,21.90
2018-09-09T11:05:43.037Z,22.20
2018-09-09T11:10:33.992Z,22.40
2018-09-09T11:15:24.907Z,22.80
2018-09-09T11:20:15.853Z,23.20
2018-09-09T11:25:06.841Z,23.60
2018-09-09T11:29:57.768Z,24.00
2018-09-09T11:34:48.787Z,24.60
2018-09-09T11:39:40.445Z,25.60
2018-09-09T11:44:31.355Z,25.60
2018-09-09T11:49:23.003Z,26.70
2018-09-09T11:54:13.941Z,26.60
2018-09-09T11:59:04.865Z,27.20
2018-09-09T12:03:56.635Z,28.00
2018-09-09T12:08:47.550Z,28.00
2018-09-09T12:13:38.804Z,28.40
2018-09-09T12:18:29.687Z,28.70
2018-09-09T12:23:21.423Z,29.20
2018-09-09T12:28:12.337Z,29.20
2018-09-09T12:33:04.052Z,29.20
2018-09-09T12:37:55.226Z,29.20
2018-09-09T12:42:46.154Z,29.10
2018-09-09T12:47:47.914Z,28.90
2018-09-09T12:52:38.878Z,28.90
2018-09-09T12:57:29.859Z,28.70
2018-09-09T13:02:20.818Z,28.50
2018-09-09T13:07:11.748Z,28.30
2018-09-09T13:12:03.402Z,27.80
2018-09-09T13:16:54.433Z,27.80
2018-09-09T13:21:45.357Z,27.60
2018-09-09T13:26:36.387Z,27.30
2018-09-09T13:31:27.344Z,27.10
2018-09-09T13:36:18.735Z,26.90
2018-09-09T13:41:09.704Z,26.80
2018-09-09T13:51:55.605Z,26.50
2018-09-09T13:56:46.903Z,26.40
2018-09-09T14:01:37.851Z,26.30
2018-09-09T14:06:29.566Z,26.10
2018-09-09T14:11:20.665Z,26.10
2018-09-09T14:16:11.595Z,26.10
2018-09-09T14:21:02.533Z,26.00
2018-09-09T14:25:53.477Z,25.90
2018-09-09T14:30:44.410Z,25.90
2018-09-09T14:35:35.387Z,25.80
2018-09-09T14:40:26.542Z,25.70
2018-09-09T14:45:18.377Z,25.60
2018-09-09T14:50:09.274Z,25.50
2018-09-09T14:55:00.185Z,25.50
2018-09-09T14:59:51.115Z,25.50
2018-09-09T15:04:42.813Z,25.40
2018-09-09T15:09:34.479Z,25.30
2018-09-09T15:14:26.215Z,25.20
2018-09-09T15:19:17.161Z,25.20
2018-09-09T15:24:08.101Z,25.10
2018-09-09T15:28:59.911Z,24.80
2018-09-09T15:33:51.057Z,24.80
2018-09-09T15:38:42.865Z,24.60
2018-09-09T15:43:33.825Z,24.60
2018-09-09T15:48:25.563Z,24.40
2018-09-09T15:53:16.520Z,24.40
2018-09-09T15:58:07.527Z,24.40
2018-09-09T16:02:58.638Z,24.20
2018-09-09T16:07:51.021Z,24.10
2018-09-09T16:12:42.771Z,24.00
2018-09-09T16:17:33.638Z,24.00
2018-09-09T16:22:24.561Z,23.90
2018-09-09T16:27:15.543Z,23.80
2018-09-09T16:32:07.160Z,23.70
2018-09-09T16:36:58.838Z,23.50
2018-09-09T16:41:50.491Z,23.40
2018-09-09T16:46:41.438Z,23.40
2018-09-09T16:51:32.386Z,23.30
2018-09-09T16:56:23.301Z,23.20
2018-09-09T17:01:14.299Z,23.20
2018-09-09T17:06:05.975Z,22.90
2018-09-09T17:10:56.884Z,22.90
2018-09-09T17:15:47.857Z,22.80
2018-09-09T17:20:38.811Z,22.70
2018-09-09T17:25:29.805Z,22.60
2018-09-09T17:30:20.708Z,22.40
2018-09-09T17:35:11.683Z,22.20
2018-09-09T17:40:02.611Z,22.00
2018-09-09T17:44:53.553Z,21.90
2018-09-09T17:49:45.206Z,21.50
2018-09-09T17:54:36.122Z,21.50
2018-09-09T17:59:27.057Z,21.30
2018-09-09T18:04:18.709Z,20.90
2018-09-09T18:09:09.621Z,20.90
2018-09-09T18:14:00.587Z,20.70
2018-09-09T18:18:52.237Z,20.40
2018-09-09T18:23:43.897Z,20.20
2018-09-09T18:28:34.825Z,20.00
2018-09-09T18:33:26.514Z,19.90
2018-09-09T18:38:18.172Z,19.70
2018-09-09T18:43:09.086Z,19.70
2018-09-09T18:48:00.004Z,19.50
2018-09-09T18:52:50.922Z,19.40
2018-09-09T18:57:41.843Z,19.20
2018-09-09T19:02:32.766Z,19.10
2018-09-09T19:07:23.694Z,18.90
2018-09-09T19:12:14.619Z,18.80
2018-09-09T19:17:05.588Z,18.60
2018-09-09T19:21:56.535Z,18.50
2018-09-09T19:26:48.590Z,18.20
2018-09-09T19:31:39.504Z,18.20
2018-09-09T19:36:30.510Z,18.10
2018-09-09T19:41:22.120Z,17.90
2018-09-09T19:46:13.071Z,17.90
2018-09-09T19:51:03.997Z,17.80
2018-09-09T19:55:54.914Z,17.70
2018-09-09T20:00:45.819Z,17.60
2018-09-09T20:05:37.521Z,17.50
2018-09-09T20:10:28.510Z,17.40
2018-09-09T20:15:19.457Z,17.40
2018-09-09T20:20:11.156Z,17.20
2018-09-09T20:25:02.117Z,17.20
2018-09-09T20:29:53.115Z,17.10
2018-09-09T20:34:44.097Z,17.10
2018-09-09T20:39:35.809Z,17.00
2018-09-09T20:44:26.737Z,16.90
2018-09-09T20:49:18.383Z,16.70
2018-09-09T20:54:10.285Z,16.60
2018-09-09T20:59:01.062Z,16.60
2018-09-09T21:03:51.983Z,16.60
2018-09-09T21:08:42.940Z,16.40
2018-09-09T21:13:33.851Z,16.40
2018-09-09T21:18:25.497Z,16.20
2018-09-09T21:23:16.443Z,16.10
2018-09-09T21:28:07.398Z,16.10
2018-09-09T21:32:59.069Z,15.90
2018-09-09T21:37:50.051Z,15.90
2018-09-09T21:42:40.995Z,15.80
2018-09-09T21:47:31.902Z,15.80
2018-09-09T21:52:22.845Z,15.70
2018-09-09T21:57:13.756Z,15.60
2018-09-09T22:02:04.663Z,15.50
2018-09-09T22:06:56.303Z,15.30
2018-09-09T22:11:47.244Z,15.30
2018-09-09T22:16:38.186Z,15.30
2018-09-09T22:21:29.851Z,15.10
2018-09-09T22:26:20.740Z,15.10
2018-09-09T22:31:11.665Z,15.00
2018-09-09T22:36:02.565Z,14.90
2018-09-09T22:40:54.231Z,14.80
2018-09-09T22:45:45.132Z,14.80
2018-09-09T22:50:36.044Z,14.70
2018-09-09T22:55:26.974Z,14.70
2018-09-09T23:00:17.903Z,14.60
2018-09-09T23:05:09.575Z,14.40
2018-09-09T23:10:00.502Z,14.40
2018-09-09T23:14:51.444Z,14.40
2018-09-09T23:19:42.424Z,14.30
2018-09-09T23:24:33.364Z,14.20
2018-09-09T23:29:25.011Z,14.10
2018-09-09T23:34:15.950Z,14.10
2018-09-09T23:39:06.874Z,14.00
2018-09-09T23:43:57.793Z,14.00
2018-09-09T23:48:48.690Z,13.90
2018-09-09T23:53:39.597Z,13.80
2018-09-09T23:58:31.251Z,13.70
